Time;durP1;ratioP1;P1;durP2;ratioP2;P2;SDS_P1;SDS_P2;PMS_P1;PMS_P2;Temp;Humidity;BMP_temperature;BMP_pressure;BME280_temperature;BME280_humidity;BME280_pressure;Samples;Min_cycle;Max_cycle;Signal;HPM_P1;HPM_P2
2023/07/01 00:01:27;;;;;;;5.00;3.17;;;17.90;99.90;;;;;;5031866;28;20547;-70
2023/07/01 00:03:55;;;;;;;3.13;2.73;;;17.80;99.90;;;;;;5030796;28;20469;-70
2023/07/01 00:06:23;;;;;;;4.80;3.30;;;17.80;99.90;;;;;;5031469;28;20449;-70
2023/07/01 00:08:53;;;;;;;3.13;2.83;;;17.70;99.90;;;;;;5032599;28;20473;-70
2023/07/01 00:11:21;;;;;;;3.00;2.67;;;17.70;99.80;;;;;;5032102;28;20460;-70
2023/07/01 00:13:50;;;;;;;3.90;2.70;;;17.60;99.90;;;;;;5029950;28;20557;-70
2023/07/01 00:16:18;;;;;;;2.90;2.60;;;17.60;99.90;;;;;;5031953;28;20437;-69
2023/07/01 00:18:47;;;;;;;2.97;2.67;;;17.50;99.90;;;;;;5031507;28;20441;-70
2023/07/01 00:21:15;;;;;;;4.00;3.67;;;17.40;99.90;;;;;;5032259;28;20440;-68
2023/07/01 00:23:43;;;;;;;4.67;3.40;;;17.30;99.90;;;;;;5030285;28;20492;-69
2023/07/01 00:26:11;;;;;;;3.50;2.90;;;17.20;99.90;;;;;;5032018;28;20820;-69
2023/07/01 00:28:39;;;;;;;3.27;2.40;;;17.20;99.90;;;;;;5032431;28;20444;-69
2023/07/01 00:31:08;;;;;;;3.20;2.90;;;17.20;99.90;;;;;;5032359;28;20529;-70
2023/07/01 00:33:36;;;;;;;3.07;2.87;;;17.20;99.90;;;;;;5030367;28;20573;-70
2023/07/01 00:36:05;;;;;;;3.60;2.67;;;17.20;99.90;;;;;;5031477;28;20445;-70
2023/07/01 00:38:33;;;;;;;3.33;2.50;;;17.10;99.90;;;;;;5031822;28;20440;-70
2023/07/01 00:41:01;;;;;;;4.17;2.93;;;17.10;99.90;;;;;;5031157;28;20455;-70
2023/07/01 00:43:32;;;;;;;4.17;3.77;;;17.00;99.90;;;;;;5030415;28;20453;-70
2023/07/01 00:46:01;;;;;;;5.63;2.93;;;17.00;99.90;;;;;;5031459;28;20453;-70
2023/07/01 00:48:31;;;;;;;4.33;2.90;;;17.00;99.90;;;;;;5031166;28;20950;-69
2023/07/01 00:50:59;;;;;;;3.20;2.80;;;16.90;99.90;;;;;;5031196;28;20935;-69
2023/07/01 00:53:27;;;;;;;5.23;2.63;;;16.80;99.90;;;;;;5029353;28;21090;-69
2023/07/01 00:55:55;;;;;;;4.50;3.33;;;16.80;99.90;;;;;;5030036;28;20439;-69
2023/07/01 00:58:23;;;;;;;4.23;3.27;;;16.60;99.90;;;;;;5030662;28;20440;-69
2023/07/01 01:00:51;;;;;;;4.90;3.10;;;16.50;99.90;;;;;;5030841;28;20451;-69
2023/07/01 01:03:26;;;;;;;3.30;3.00;;;16.50;99.90;;;;;;5029603;28;20879;-69
2023/07/01 01:06:04;;;;;;;3.23;2.93;;;16.40;99.90;;;;;;5030932;28;20491;-70
2023/07/01 01:08:56;;;;;;;7.10;2.90;;;16.40;99.90;;;;;;5030764;28;20452;-70
2023/07/01 01:11:26;;;;;;;3.50;3.20;;;16.40;99.90;;;;;;5030702;28;20502;-71
2023/07/01 01:13:57;;;;;;;4.17;3.00;;;16.40;99.90;;;;;;5029341;28;20491;-70
2023/07/01 01:16:26;;;;;;;4.67;3.37;;;16.40;99.90;;;;;;5029802;28;20481;-70
2023/07/01 01:18:55;;;;;;;3.57;3.27;;;16.40;99.90;;;;;;5030542;28;20536;-70
2023/07/01 01:21:26;;;;;;;4.90;3.17;;;16.30;99.90;;;;;;5030816;28;20536;-70
2023/07/01 01:24:01;;;;;;;4.07;3.67;;;16.20;99.90;;;;;;5029354;28;20470;-70
2023/07/01 01:26:33;;;;;;;4.47;3.93;;;16.20;99.90;;;;;;5030034;28;20523;-70
2023/07/01 01:29:06;;;;;;;5.43;4.30;;;16.10;99.90;;;;;;5030569;28;20499;-70
2023/07/01 01:31:34;;;;;;;5.57;3.40;;;16.00;99.90;;;;;;5030210;28;20500;-70
2023/07/01 01:34:02;;;;;;;3.27;3.00;;;16.10;99.90;;;;;;5028999;28;20508;-70
2023/07/01 01:36:43;;;;;;;3.80;3.00;;;16.20;99.90;;;;;;5029926;28;20877;-70
2023/07/01 01:39:15;;;;;;;3.03;2.70;;;16.20;99.90;;;;;;5030586;28;20443;-70
2023/07/01 01:41:49;;;;;;;4.90;2.83;;;16.10;99.90;;;;;;5029235;28;20503;-70
2023/07/01 01:44:25;;;;;;;4.03;2.87;;;16.10;99.90;;;;;;5029053;28;20550;-71
2023/07/01 01:46:54;;;;;;;2.80;2.60;;;16.10;99.90;;;;;;5030243;28;20448;-71
2023/07/01 01:49:22;;;;;;;4.10;2.93;;;16.20;99.90;;;;;;5029877;28;20520;-70
2023/07/01 01:51:54;;;;;;;3.60;3.20;;;16.20;99.90;;;;;;5029929;28;20504;-71
2023/07/01 01:54:23;;;;;;;3.30;3.00;;;16.20;99.90;;;;;;5028758;28;21017;-69
2023/07/01 01:56:52;;;;;;;3.93;3.20;;;16.20;99.90;;;;;;5030181;28;20543;-69
2023/07/01 01:59:22;;;;;;;4.43;3.00;;;16.10;99.90;;;;;;5029909;28;20480;-69
2023/07/01 02:01:50;;;;;;;3.00;2.70;;;16.10;99.90;;;;;;5029777;28;20591;-70
2023/07/01 02:04:18;;;;;;;3.87;3.00;;;16.00;99.90;;;;;;5028639;28;20768;-70
2023/07/01 02:06:46;;;;;;;3.77;3.00;;;16.00;99.90;;;;;;5029815;28;20448;-70
2023/07/01 02:09:14;;;;;;;3.27;2.50;;;15.90;99.90;;;;;;5029797;28;20446;-70
2023/07/01 02:11:44;;;;;;;3.03;2.73;;;15.80;99.90;;;;;;5029962;28;20449;-70
2023/07/01 02:14:12;;;;;;;4.80;3.03;;;15.70;99.90;;;;;;5028197;28;20489;-70
2023/07/01 02:16:41;;;;;;;3.87;2.70;;;15.70;99.90;;;;;;5030005;28;20932;-69
2023/07/01 02:19:10;;;;;;;3.70;2.40;;;15.60;99.90;;;;;;5029602;28;20440;-70
2023/07/01 02:21:38;;;;;;;3.20;2.90;;;15.60;99.90;;;;;;5029763;28;20448;-70
2023/07/01 02:24:06;;;;;;;3.83;3.00;;;15.60;99.90;;;;;;5028298;28;20983;-70
2023/07/01 02:26:34;;;;;;;4.43;2.80;;;15.60;99.90;;;;;;5029726;28;20449;-70
2023/07/01 02:29:03;;;;;;;5.13;3.60;;;15.60;99.90;;;;;;5029730;28;20481;-69
2023/07/01 02:31:31;;;;;;;4.77;3.40;;;15.50;99.90;;;;;;5029651;28;20879;-69
2023/07/01 02:34:02;;;;;;;3.10;2.83;;;15.50;99.90;;;;;;5028658;28;20480;-70
2023/07/01 02:36:30;;;;;;;7.70;3.70;;;15.40;99.90;;;;;;5029776;28;20444;-70
2023/07/01 02:38:58;;;;;;;3.57;3.27;;;15.40;99.90;;;;;;5037110;28;20448;-70
2023/07/01 02:41:26;;;;;;;3.80;3.30;;;15.30;99.90;;;;;;5049592;28;20486;-70
2023/07/01 02:43:54;;;;;;;4.20;3.10;;;15.30;99.90;;;;;;5047829;28;20459;-70
2023/07/01 02:46:22;;;;;;;3.87;3.20;;;15.20;99.90;;;;;;5048928;28;20448;-70
2023/07/01 02:48:51;;;;;;;4.57;3.00;;;15.10;99.90;;;;;;5049532;28;20868;-70
2023/07/01 02:51:20;;;;;;;3.63;3.23;;;15.00;99.90;;;;;;5048685;28;20547;-70
2023/07/01 02:53:48;;;;;;;3.23;2.90;;;14.90;99.90;;;;;;5047912;28;20503;-70
2023/07/01 02:56:16;;;;;;;4.13;3.70;;;14.80;99.90;;;;;;5049483;28;20509;-70
2023/07/01 02:58:44;;;;;;;3.70;3.40;;;14.70;99.90;;;;;;5049071;28;20512;-70
2023/07/01 03:01:13;;;;;;;5.63;3.00;;;14.60;99.90;;;;;;5049617;28;20448;-70
2023/07/01 03:03:41;;;;;;;4.20;3.07;;;14.50;99.90;;;;;;5047577;28;20836;-70
2023/07/01 03:06:10;;;;;;;3.57;3.10;;;14.40;99.90;;;;;;5049178;28;20857;-70
2023/07/01 03:08:39;;;;;;;11.53;4.10;;;14.40;99.90;;;;;;5048943;28;20489;-70
2023/07/01 03:11:07;;;;;;;7.97;4.00;;;14.30;99.90;;;;;;5048809;28;20543;-70
2023/07/01 03:13:37;;;;;;;4.80;3.63;;;14.30;99.90;;;;;;5047301;28;20483;-70
2023/07/01 03:16:07;;;;;;;6.63;3.63;;;14.30;99.90;;;;;;5049220;28;20501;-70
2023/07/01 03:18:36;;;;;;;10.87;4.23;;;14.30;99.90;;;;;;5048982;28;20795;-70
2023/07/01 03:21:04;;;;;;;13.37;4.17;;;14.40;99.90;;;;;;5049102;28;20471;-71
2023/07/01 03:23:32;;;;;;;15.03;4.47;;;14.40;99.90;;;;;;5047716;28;20996;-70
2023/07/01 03:26:02;;;;;;;16.93;4.30;;;14.50;99.90;;;;;;5048963;28;20538;-70
2023/07/01 03:28:30;;;;;;;12.53;4.80;;;14.50;99.90;;;;;;5049420;28;20590;-70
2023/07/01 03:30:58;;;;;;;8.70;4.03;;;14.50;99.90;;;;;;5048778;28;20470;-70
2023/07/01 03:33:26;;;;;;;8.63;3.80;;;14.40;99.90;;;;;;5047788;28;20512;-70
2023/07/01 03:35:54;;;;;;;5.33;3.90;;;14.40;99.90;;;;;;5048748;28;20952;-70
2023/07/01 03:38:23;;;;;;;5.73;3.97;;;14.20;99.90;;;;;;5048481;28;20535;-70
2023/07/01 03:40:51;;;;;;;5.47;3.13;;;14.20;99.90;;;;;;5048824;28;20997;-70
2023/07/01 03:43:20;;;;;;;3.97;3.50;;;14.00;99.90;;;;;;5047533;28;20513;-70
2023/07/01 03:45:49;;;;;;;4.37;3.97;;;14.00;99.90;;;;;;5048974;28;20546;-70
2023/07/01 03:48:17;;;;;;;4.10;3.73;;;14.00;99.90;;;;;;5048576;28;20444;-70
2023/07/01 03:50:45;;;;;;;5.07;4.57;;;14.00;99.90;;;;;;5052449;28;20499;-70
2023/07/01 03:53:13;;;;;;;4.17;3.87;;;14.00;99.90;;;;;;5051025;28;20601;-70
2023/07/01 03:55:41;;;;;;;4.27;3.87;;;13.90;99.90;;;;;;5052533;28;20477;-71
2023/07/01 03:58:09;;;;;;;4.23;3.67;;;13.80;99.90;;;;;;5052075;28;20444;-70
2023/07/01 04:00:39;;;;;;;4.43;3.80;;;13.70;99.90;;;;;;5052049;28;20539;-70
2023/07/01 04:03:08;;;;;;;5.60;4.03;;;13.70;99.90;;;;;;5050897;28;20514;-71
2023/07/01 04:05:37;;;;;;;4.50;4.10;;;13.70;99.90;;;;;;5051768;28;20471;-70
2023/07/01 04:08:05;;;;;;;4.67;4.23;;;13.80;99.90;;;;;;5052127;28;20534;-70
2023/07/01 04:10:33;;;;;;;5.03;4.13;;;13.80;99.90;;;;;;5052096;28;20530;-70
2023/07/01 04:13:01;;;;;;;4.77;4.23;;;13.90;99.90;;;;;;5050477;28;20448;-71
2023/07/01 04:15:29;;;;;;;5.17;4.23;;;14.00;99.90;;;;;;5051181;28;20545;-70
2023/07/01 04:17:58;;;;;;;4.90;4.40;;;14.10;99.90;;;;;;5052241;28;20445;-70
2023/07/01 04:20:26;;;;;;;4.20;3.60;;;14.20;99.90;;;;;;5051713;28;20444;-70
2023/07/01 04:22:54;;;;;;;5.60;4.40;;;14.30;99.90;;;;;;5050914;28;20487;-70
2023/07/01 04:25:22;;;;;;;6.50;4.00;;;14.50;99.90;;;;;;5052183;28;20440;-70
2023/07/01 04:27:50;;;;;;;4.17;3.73;;;14.50;99.90;;;;;;5051554;28;20444;-70
2023/07/01 04:30:18;;;;;;;5.57;4.83;;;14.70;99.90;;;;;;5051897;28;20447;-70
2023/07/01 04:32:46;;;;;;;6.67;3.90;;;14.70;99.90;;;;;;5049640;28;20473;-70
2023/07/01 04:35:16;;;;;;;5.30;4.00;;;14.80;99.90;;;;;;5051380;28;20571;-70
2023/07/01 04:37:44;;;;;;;3.80;3.37;;;14.90;99.90;;;;;;5051202;28;20964;-70
2023/07/01 04:40:13;;;;;;;4.77;4.10;;;15.10;99.90;;;;;;5051848;28;20474;-70
2023/07/01 04:42:48;;;;;;;4.60;4.20;;;15.20;99.90;;;;;;5050236;28;20504;-70
2023/07/01 04:45:18;;;;;;;3.80;3.40;;;15.20;99.90;;;;;;5051971;28;20436;-70
2023/07/01 04:47:47;;;;;;;4.10;3.80;;;15.20;99.90;;;;;;5051713;28;21106;-70
2023/07/01 04:50:17;;;;;;;4.50;4.00;;;15.30;99.90;;;;;;5050783;28;20535;-70
2023/07/01 04:52:45;;;;;;;4.57;4.07;;;15.30;99.90;;;;;;5050444;28;21040;-70
2023/07/01 04:55:13;;;;;;;6.17;4.47;;;15.30;99.90;;;;;;5051921;28;20476;-70
2023/07/01 04:57:42;;;;;;;3.87;3.53;;;15.40;99.90;;;;;;5052045;28;20439;-69
2023/07/01 05:00:11;;;;;;;5.50;3.63;;;15.30;99.90;;;;;;5051013;28;20449;-69
2023/07/01 05:02:39;;;;;;;4.83;4.33;;;15.40;99.90;;;;;;5050644;28;20876;-70
2023/07/01 05:05:08;;;;;;;5.73;3.67;;;15.40;99.90;;;;;;5052003;28;20454;-70
2023/07/01 05:07:38;;;;;;;4.40;3.87;;;15.40;99.90;;;;;;5051408;28;20448;-71
2023/07/01 05:10:07;;;;;;;12.40;5.40;;;15.60;99.90;;;;;;5050606;28;21029;-70
2023/07/01 05:12:35;;;;;;;7.53;4.27;;;15.70;99.90;;;;;;5049749;28;20444;-70
2023/07/01 05:15:04;;;;;;;11.03;4.60;;;15.80;99.90;;;;;;5050872;28;20555;-70
2023/07/01 05:17:32;;;;;;;5.17;4.40;;;15.90;99.90;;;;;;5050465;28;20448;-70
2023/07/01 05:20:00;;;;;;;8.63;4.20;;;16.00;99.90;;;;;;5048683;28;20445;-70
2023/07/01 05:22:28;;;;;;;10.20;4.63;;;16.00;99.90;;;;;;5049317;28;20527;-70
2023/07/01 05:24:57;;;;;;;7.40;4.70;;;16.10;99.90;;;;;;5050706;28;20574;-70
2023/07/01 05:27:25;;;;;;;10.70;4.30;;;16.20;99.90;;;;;;5050679;28;20547;-70
2023/07/01 05:29:53;;;;;;;6.60;4.10;;;16.40;99.90;;;;;;5050607;28;20510;-70
2023/07/01 05:32:21;;;;;;;4.77;3.93;;;16.50;99.90;;;;;;5049981;28;20456;-70
2023/07/01 05:34:49;;;;;;;4.00;3.70;;;16.50;99.90;;;;;;5050322;28;20476;-70
2023/07/01 05:37:17;;;;;;;6.50;3.30;;;16.60;99.90;;;;;;5050330;28;20925;-70
2023/07/01 05:39:45;;;;;;;6.17;3.30;;;16.80;99.90;;;;;;5050298;28;20538;-70
2023/07/01 05:42:15;;;;;;;4.27;2.93;;;17.20;99.90;;;;;;5050171;28;20888;-70
2023/07/01 05:44:43;;;;;;;3.87;2.60;;;17.50;99.90;;;;;;5049216;28;20856;-70
2023/07/01 05:47:11;;;;;;;4.30;2.80;;;17.60;99.50;;;;;;5050085;28;20454;-70
2023/07/01 05:49:39;;;;;;;3.40;2.70;;;17.80;96.40;;;;;;5050304;28;20883;-70
2023/07/01 05:52:07;;;;;;;2.80;2.20;;;17.90;96.30;;;;;;5049930;28;20524;-70
2023/07/01 05:54:35;;;;;;;4.33;2.70;;;18.00;94.00;;;;;;5048854;28;20480;-70
2023/07/01 05:57:04;;;;;;;5.80;2.63;;;18.20;93.40;;;;;;5049827;28;20995;-70
2023/07/01 05:59:33;;;;;;;4.20;2.50;;;18.30;92.60;;;;;;5031190;28;20440;-70
2023/07/01 06:02:02;;;;;;;3.70;2.50;;;18.40;91.50;;;;;;5049956;28;20470;-71
2023/07/01 06:04:30;;;;;;;4.47;2.50;;;18.40;90.60;;;;;;5049015;28;21005;-70
2023/07/01 06:06:58;;;;;;;3.13;2.30;;;18.40;90.40;;;;;;5050087;28;20542;-70
2023/07/01 06:09:26;;;;;;;2.93;2.33;;;18.50;90.30;;;;;;5050017;28;20535;-70
2023/07/01 06:11:55;;;;;;;4.10;2.67;;;18.70;90.30;;;;;;5049358;28;20444;-70
2023/07/01 06:14:23;;;;;;;2.23;1.93;;;18.70;88.30;;;;;;5048332;28;20535;-70
2023/07/01 06:16:52;;;;;;;4.00;2.43;;;18.80;86.80;;;;;;5049733;28;20531;-70
2023/07/01 06:19:20;;;;;;;6.77;2.80;;;18.90;84.10;;;;;;5049532;28;20444;-70
2023/07/01 06:21:50;;;;;;;2.37;2.13;;;18.90;84.30;;;;;;5049528;28;20450;-70
2023/07/01 06:24:18;;;;;;;5.03;2.20;;;18.90;83.80;;;;;;5048237;28;20521;-70
2023/07/01 06:26:46;;;;;;;5.60;2.67;;;19.00;82.80;;;;;;5049594;28;20974;-70
2023/07/01 06:29:14;;;;;;;5.40;2.17;;;19.10;82.90;;;;;;5049566;28;20440;-70
2023/07/01 06:31:43;;;;;;;2.70;2.50;;;19.20;80.10;;;;;;5049512;28;20444;-70
2023/07/01 06:34:15;;;;;;;4.97;2.00;;;19.20;79.70;;;;;;5048120;28;20529;-68
2023/07/01 06:36:43;;;;;;;2.50;2.30;;;19.30;78.40;;;;;;5049600;28;20923;-69
2023/07/01 06:39:12;;;;;;;7.33;2.20;;;19.30;77.20;;;;;;5049297;28;20871;-69
2023/07/01 06:41:40;;;;;;;3.60;1.77;;;19.30;77.00;;;;;;5049371;28;20501;-70
2023/07/01 06:44:08;;;;;;;4.33;2.70;;;19.30;76.10;;;;;;5048111;28;20456;-69
2023/07/01 06:46:36;;;;;;;2.60;1.97;;;19.40;75.30;;;;;;5049214;28;20514;-70
2023/07/01 06:49:04;;;;;;;3.30;2.10;;;19.60;75.40;;;;;;5049366;28;20478;-69
2023/07/01 06:51:33;;;;;;;4.47;2.17;;;19.60;74.80;;;;;;5049176;28;20881;-69
2023/07/01 06:54:01;;;;;;;4.17;2.00;;;19.70;75.30;;;;;;5048042;28;20498;-70
2023/07/01 06:56:29;;;;;;;2.50;2.30;;;19.80;74.70;;;;;;5049083;28;20487;-70
2023/07/01 06:58:57;;;;;;;2.43;2.10;;;19.90;75.00;;;;;;5049198;28;20475;-69
2023/07/01 07:01:25;;;;;;;4.63;2.87;;;20.00;74.10;;;;;;5049246;28;20451;-69
2023/07/01 07:03:55;;;;;;;3.23;2.03;;;20.10;71.60;;;;;;5047807;28;20464;-70
2023/07/01 07:06:23;;;;;;;3.47;2.27;;;20.00;69.40;;;;;;5049413;28;20543;-69
2023/07/01 07:08:52;;;;;;;4.30;2.20;;;20.00;69.50;;;;;;5049311;28;20514;-69
2023/07/01 07:11:20;;;;;;;2.47;2.27;;;20.10;71.00;;;;;;5049750;28;20504;-69
2023/07/01 07:13:48;;;;;;;4.20;2.07;;;20.30;71.70;;;;;;5048096;28;20499;-69
2023/07/01 07:16:16;;;;;;;4.37;2.13;;;20.30;71.00;;;;;;5049307;28;20922;-69
2023/07/01 07:18:44;;;;;;;4.00;2.23;;;20.40;70.60;;;;;;5049090;28;20799;-69
2023/07/01 07:21:12;;;;;;;2.47;1.90;;;20.60;69.30;;;;;;5049346;28;20447;-69
2023/07/01 07:23:40;;;;;;;3.17;1.80;;;20.70;68.50;;;;;;5048535;28;20466;-69
2023/07/01 07:26:10;;;;;;;6.97;2.00;;;20.80;68.00;;;;;;5052966;28;20509;-69
2023/07/01 07:28:38;;;;;;;3.33;1.83;;;20.90;68.10;;;;;;5053115;28;20439;-67
2023/07/01 07:31:06;;;;;;;3.10;2.30;;;21.10;68.10;;;;;;5052757;28;20509;-70
2023/07/01 07:33:34;;;;;;;4.63;1.97;;;21.10;64.10;;;;;;5051371;28;20521;-68
2023/07/01 07:36:03;;;;;;;3.40;2.23;;;21.10;65.10;;;;;;5052851;28;20570;-68
2023/07/01 07:38:31;;;;;;;2.10;1.60;;;21.30;63.60;;;;;;5052690;28;20861;-68
2023/07/01 07:41:01;;;;;;;6.43;2.00;;;21.50;63.90;;;;;;5042809;28;20440;-68
2023/07/01 07:43:30;;;;;;;6.17;2.10;;;21.70;62.90;;;;;;5031533;28;20912;-67
2023/07/01 07:46:00;;;;;;;2.83;2.00;;;21.80;64.00;;;;;;5032545;28;20441;-67
2023/07/01 07:48:28;;;;;;;2.40;1.97;;;22.00;63.40;;;;;;5032815;28;20448;-67
2023/07/01 07:50:56;;;;;;;2.43;1.67;;;22.20;62.80;;;;;;5032660;28;20453;-68
2023/07/01 07:53:24;;;;;;;5.47;2.57;;;22.30;62.60;;;;;;5030925;28;21068;-67
2023/07/01 07:55:52;;;;;;;3.23;1.97;;;22.30;61.80;;;;;;5032601;28;20522;-68
2023/07/01 07:58:20;;;;;;;4.03;2.00;;;22.40;61.30;;;;;;5032097;28;20445;-68
2023/07/01 08:00:49;;;;;;;3.30;2.07;;;22.50;61.20;;;;;;5032173;28;20794;-67
2023/07/01 08:03:17;;;;;;;3.63;2.10;;;22.50;61.90;;;;;;5030885;28;20565;-68
2023/07/01 08:05:45;;;;;;;2.37;1.97;;;22.40;61.40;;;;;;5032309;28;20452;-68
2023/07/01 08:08:13;;;;;;;2.47;2.27;;;22.40;61.50;;;;;;5032022;28;20468;-68
2023/07/01 08:10:45;;;;;;;6.00;2.50;;;22.50;62.30;;;;;;5032261;28;20487;-68
2023/07/01 08:13:15;;;;;;;6.40;2.63;;;22.70;63.00;;;;;;5031047;28;20465;-68
2023/07/01 08:15:43;;;;;;;4.20;2.13;;;22.80;61.60;;;;;;5032158;28;20441;-68
2023/07/01 08:18:13;;;;;;;3.47;2.60;;;22.70;61.60;;;;;;5031977;28;20480;-67
2023/07/01 08:20:41;;;;;;;3.80;2.50;;;22.70;61.70;;;;;;5031876;28;20480;-69
2023/07/01 08:23:09;;;;;;;3.53;2.70;;;22.80;60.30;;;;;;5031229;28;20604;-69
2023/07/01 08:25:40;;;;;;;4.37;2.23;;;22.70;60.50;;;;;;5032066;28;20437;-68
2023/07/01 08:28:08;;;;;;;2.50;2.30;;;22.60;60.90;;;;;;5032095;28;20441;-67
2023/07/01 08:30:36;;;;;;;3.73;1.90;;;22.40;60.40;;;;;;5051541;28;20474;-69
2023/07/01 08:33:05;;;;;;;2.80;2.27;;;22.20;60.40;;;;;;5052266;28;20436;-67
2023/07/01 08:35:34;;;;;;;2.57;2.20;;;22.20;62.10;;;;;;5047638;28;20440;-68
2023/07/01 08:38:02;;;;;;;2.97;2.77;;;22.30;61.50;;;;;;5051352;28;20475;-67
2023/07/01 08:40:30;;;;;;;7.20;2.80;;;22.20;60.60;;;;;;5051748;28;20452;-68
2023/07/01 08:43:02;;;;;;;3.13;2.13;;;22.20;61.40;;;;;;5050176;28;21048;-68
2023/07/01 08:45:32;;;;;;;2.60;2.07;;;22.00;60.70;;;;;;5052154;28;21117;-69
2023/07/01 08:48:01;;;;;;;3.70;2.70;;;22.10;62.90;;;;;;5051498;28;20478;-68
2023/07/01 08:50:38;;;;;;;3.40;2.33;;;22.30;61.30;;;;;;5051456;28;20472;-69
2023/07/01 08:53:07;;;;;;;2.23;2.13;;;22.30;62.90;;;;;;5041580;28;20466;-68
2023/07/01 08:55:36;;;;;;;5.93;2.47;;;22.50;61.70;;;;;;5038463;28;20998;-68
2023/07/01 08:58:04;;;;;;;3.30;2.97;;;22.60;62.40;;;;;;5039779;28;20567;-66
2023/07/01 09:00:32;;;;;;;4.13;2.57;;;22.90;61.50;;;;;;5041942;28;20429;-67
2023/07/01 09:03:02;;;;;;;3.10;2.80;;;22.90;61.10;;;;;;5037914;28;20441;-68
2023/07/01 09:05:31;;;;;;;4.40;2.60;;;23.20;60.70;;;;;;5037296;28;20441;-69
2023/07/01 09:08:00;;;;;;;3.40;2.20;;;23.50;61.50;;;;;;5044682;28;20794;-68
2023/07/01 09:10:28;;;;;;;4.00;2.70;;;23.70;59.30;;;;;;5056991;28;20438;-68
2023/07/01 09:13:09;;;;;;;3.07;2.27;;;23.40;57.60;;;;;;5040335;28;20461;-67
2023/07/01 09:15:44;;;;;;;4.17;2.00;;;23.30;58.50;;;;;;5052491;28;21135;-68
2023/07/01 09:18:23;;;;;;;2.90;2.60;;;23.70;58.50;;;;;;5068940;28;20479;-69
2023/07/01 09:20:51;;;;;;;3.17;2.53;;;23.90;58.60;;;;;;5070831;28;20447;-68
2023/07/01 09:23:28;;;;;;;3.20;2.63;;;24.00;56.40;;;;;;5062629;28;20464;-67
2023/07/01 09:26:13;;;;;;;4.37;2.77;;;24.20;55.90;;;;;;5054471;28;20451;-69
2023/07/01 09:28:43;;;;;;;3.80;2.10;;;24.30;55.60;;;;;;5044883;28;20543;-69
2023/07/01 09:31:12;;;;;;;4.50;2.40;;;24.10;54.40;;;;;;5034227;28;20432;-67
2023/07/01 09:33:41;;;;;;;4.40;2.43;;;23.90;54.20;;;;;;5049311;28;20464;-68
2023/07/01 09:36:09;;;;;;;2.17;1.90;;;23.70;53.60;;;;;;5044007;28;20443;-66
2023/07/01 09:38:52;;;;;;;2.30;2.10;;;23.50;53.80;;;;;;5045526;28;20529;-68
2023/07/01 09:41:23;;;;;;;4.50;2.77;;;23.70;53.90;;;;;;5052403;28;20515;-68
2023/07/01 09:43:51;;;;;;;6.00;2.30;;;24.00;54.40;;;;;;5036788;28;20464;-69
2023/07/01 09:46:19;;;;;;;4.70;2.87;;;24.20;53.20;;;;;;5036400;28;20437;-67
2023/07/01 09:48:54;;;;;;;2.43;2.20;;;24.20;52.30;;;;;;5036456;28;20463;-67
2023/07/01 09:51:23;;;;;;;4.00;2.47;;;24.30;51.70;;;;;;5035568;28;20436;-68
2023/07/01 09:53:53;;;;;;;3.60;2.73;;;24.40;51.00;;;;;;5036702;28;20461;-68
2023/07/01 09:56:21;;;;;;;3.83;2.97;;;24.10;50.00;;;;;;5021689;28;20841;-68
2023/07/01 09:58:50;;;;;;;2.33;2.13;;;24.10;51.10;;;;;;5025106;28;20520;-68
2023/07/01 10:01:19;;;;;;;5.13;3.60;;;24.30;50.60;;;;;;5025262;28;20511;-67
2023/07/01 10:03:47;;;;;;;5.43;3.00;;;24.70;48.70;;;;;;5024589;28;20511;-68
2023/07/01 10:06:15;;;;;;;4.40;3.63;;;25.10;47.60;;;;;;5025697;28;21006;-68
2023/07/01 10:08:44;;;;;;;4.80;3.10;;;25.60;46.10;;;;;;5039419;28;20499;-68
2023/07/01 10:11:16;;;;;;;4.07;3.03;;;26.10;45.70;;;;;;5025827;28;20499;-67
2023/07/01 10:13:48;;;;;;;3.87;3.40;;;26.40;44.50;;;;;;5029381;28;20750;-68
2023/07/01 10:16:16;;;;;;;4.23;3.83;;;27.00;44.30;;;;;;5026499;28;20484;-67
2023/07/01 10:18:45;;;;;;;4.03;3.73;;;26.80;41.20;;;;;;5026066;28;20488;-68
2023/07/01 10:21:30;;;;;;;3.97;3.50;;;26.90;42.30;;;;;;5025686;28;20543;-67
2023/07/01 10:23:59;;;;;;;4.13;3.73;;;27.40;44.00;;;;;;5026824;28;20457;-68
2023/07/01 10:26:37;;;;;;;3.53;3.20;;;27.50;43.40;;;;;;5025220;28;21004;-68
2023/07/01 10:29:39;;;;;;;3.27;2.97;;;27.10;43.50;;;;;;5034118;28;21296;-68
2023/07/01 10:32:30;;;;;;;3.33;2.90;;;26.80;43.90;;;;;;5030528;28;20807;-68
2023/07/01 10:35:09;;;;;;;3.60;3.13;;;26.90;45.40;;;;;;5031699;28;20456;-68
2023/07/01 10:37:38;;;;;;;3.97;3.40;;;27.10;43.90;;;;;;5026540;28;20516;-68
2023/07/01 10:40:43;;;;;;;4.10;3.50;;;27.00;42.60;;;;;;5025815;28;20520;-68
2023/07/01 10:43:27;;;;;;;4.90;3.47;;;26.80;42.70;;;;;;5028993;28;20465;-69
2023/07/01 10:46:10;;;;;;;3.43;2.80;;;26.30;43.50;;;;;;5024695;28;21022;-68
2023/07/01 10:48:39;;;;;;;4.00;2.60;;;26.10;44.00;;;;;;5029333;28;20515;-68
2023/07/01 10:51:09;;;;;;;3.60;2.97;;;25.80;44.80;;;;;;5034131;28;20531;-68
2023/07/01 10:53:58;;;;;;;3.90;2.90;;;25.90;44.30;;;;;;5026741;28;20483;-68
2023/07/01 10:56:28;;;;;;;4.00;2.77;;;26.00;45.30;;;;;;5027041;28;20491;-69
2023/07/01 10:59:27;;;;;;;4.93;2.80;;;26.10;44.80;;;;;;5026498;28;20895;-68
2023/07/01 11:01:57;;;;;;;3.07;2.67;;;26.20;43.70;;;;;;5029651;28;20448;-68
2023/07/01 11:04:26;;;;;;;2.60;2.40;;;26.00;43.80;;;;;;5028466;28;20465;-68
2023/07/01 11:06:55;;;;;;;5.10;3.13;;;25.80;44.80;;;;;;5029835;28;20465;-68
2023/07/01 11:09:29;;;;;;;3.53;2.77;;;25.70;45.90;;;;;;5039155;28;20449;-68
2023/07/01 11:11:57;;;;;;;2.90;2.67;;;25.90;45.40;;;;;;5036489;28;20516;-69
2023/07/01 11:14:32;;;;;;;4.20;2.77;;;25.80;45.00;;;;;;5028060;28;21156;-69
2023/07/01 11:17:08;;;;;;;2.60;2.40;;;25.60;45.90;;;;;;5049646;28;20447;-69
2023/07/01 11:19:36;;;;;;;2.77;2.57;;;25.70;45.90;;;;;;5049311;28;20489;-70
2023/07/01 11:22:05;;;;;;;4.67;2.87;;;25.80;45.90;;;;;;5046979;28;20493;-69
2023/07/01 11:24:34;;;;;;;6.00;3.17;;;25.80;45.20;;;;;;5048002;28;20460;-68
2023/07/01 11:27:05;;;;;;;4.90;4.10;;;25.60;44.90;;;;;;5031357;28;20441;-70
2023/07/01 11:29:35;;;;;;;5.13;3.80;;;25.90;43.50;;;;;;5029603;28;20433;-69
2023/07/01 11:32:07;;;;;;;4.37;3.90;;;25.80;42.40;;;;;;5028827;28;20441;-70
2023/07/01 11:34:35;;;;;;;3.90;3.57;;;25.70;43.70;;;;;;5034856;28;20488;-70
2023/07/01 11:37:04;;;;;;;3.70;3.40;;;25.90;43.60;;;;;;5039853;28;20489;-71
2023/07/01 11:39:43;;;;;;;4.80;3.37;;;25.80;43.50;;;;;;5032434;28;20524;-68
2023/07/01 11:42:11;;;;;;;4.77;2.90;;;26.00;44.10;;;;;;5029444;28;20848;-69
2023/07/01 11:44:41;;;;;;;3.60;2.80;;;26.40;44.10;;;;;;5027806;28;20978;-71
2023/07/01 11:47:13;;;;;;;4.47;3.47;;;26.70;43.50;;;;;;5032162;28;20456;-67
2023/07/01 11:49:41;;;;;;;4.37;3.97;;;26.70;43.00;;;;;;5034222;28;20537;-68
2023/07/01 11:52:09;;;;;;;6.90;3.33;;;26.80;42.80;;;;;;5037517;28;20437;-66
2023/07/01 11:54:46;;;;;;;4.27;3.87;;;26.70;42.30;;;;;;5033684;28;20484;-70
2023/07/01 11:57:16;;;;;;;5.13;4.63;;;26.40;42.90;;;;;;5037182;28;20536;-69
2023/07/01 11:59:48;;;;;;;3.97;3.63;;;26.30;42.80;;;;;;5035668;28;20568;-68
2023/07/01 12:02:16;;;;;;;7.20;4.27;;;26.20;42.70;;;;;;5034295;28;20530;-70
2023/07/01 12:04:44;;;;;;;5.97;4.07;;;26.00;43.50;;;;;;5034290;28;21904;-67
2023/07/01 12:07:15;;;;;;;3.53;2.67;;;26.10;43.50;;;;;;5037595;28;20499;-70
2023/07/01 12:09:45;;;;;;;3.13;2.83;;;26.30;44.20;;;;;;5033753;28;20433;-68
2023/07/01 12:12:16;;;;;;;3.43;3.13;;;26.30;43.70;;;;;;5037075;28;20453;-67
2023/07/01 12:14:46;;;;;;;3.80;3.33;;;25.90;44.50;;;;;;5037502;28;21049;-69
2023/07/01 12:17:25;;;;;;;5.27;3.33;;;25.80;45.00;;;;;;5046964;28;20946;-69
2023/07/01 12:19:54;;;;;;;4.60;3.10;;;25.80;46.40;;;;;;5034323;28;20485;-67
2023/07/01 12:22:22;;;;;;;4.13;3.23;;;25.60;45.90;;;;;;5034954;28;20496;-67
2023/07/01 12:24:54;;;;;;;3.03;2.73;;;25.60;46.10;;;;;;5039190;28;20510;-67
2023/07/01 12:27:23;;;;;;;3.97;2.70;;;25.30;45.90;;;;;;5035392;28;20785;-66
2023/07/01 12:29:52;;;;;;;3.23;2.80;;;25.20;46.80;;;;;;5035425;28;20437;-67
2023/07/01 12:32:21;;;;;;;3.67;3.30;;;25.30;46.60;;;;;;5034999;28;20452;-68
2023/07/01 12:34:49;;;;;;;4.40;3.00;;;24.90;46.70;;;;;;5027142;28;20523;-67
2023/07/01 12:37:17;;;;;;;13.67;12.40;;;24.60;47.00;;;;;;5029906;28;20720;-70
2023/07/01 12:39:46;;;;;;;3.03;2.73;;;24.50;48.90;;;;;;5027754;28;21207;-68
2023/07/01 12:42:15;;;;;;;4.60;3.60;;;24.70;48.60;;;;;;5026309;28;20476;-68
2023/07/01 12:44:43;;;;;;;3.53;3.23;;;24.90;48.60;;;;;;5033130;28;20464;-68
2023/07/01 12:47:13;;;;;;;5.87;3.10;;;25.00;48.60;;;;;;5030684;28;20449;-69
2023/07/01 12:49:41;;;;;;;5.90;2.80;;;24.90;48.90;;;;;;5027053;28;21259;-69
2023/07/01 12:52:09;;;;;;;3.23;2.40;;;24.80;49.00;;;;;;5035866;28;20544;-68
2023/07/01 12:54:38;;;;;;;3.37;2.90;;;24.80;49.10;;;;;;5032492;28;20473;-69
2023/07/01 12:57:06;;;;;;;3.90;2.87;;;24.90;49.00;;;;;;5026823;28;20456;-69
2023/07/01 12:59:34;;;;;;;3.03;2.73;;;24.90;49.10;;;;;;5033121;28;20484;-69